createdAt,value
2023-02-26T00:01:33.433Z,90865.34
2023-02-26T00:04:07.296Z,90871.19
2023-02-26T00:06:51.687Z,90838.06
2023-02-26T00:09:24.363Z,90838.59
2023-02-26T00:11:57.164Z,90824.94
2023-02-26T00:14:29.926Z,90828.19
2023-02-26T00:17:23.568Z,90816.56
2023-02-26T00:19:56.821Z,90825.56
2023-02-26T00:22:30.975Z,90819.94
2023-02-26T00:25:03.449Z,90827.75
2023-02-26T00:27:36.305Z,90826.34
2023-02-26T00:30:09.889Z,90808.09
2023-02-26T00:32:42.969Z,90807.78
2023-02-26T00:35:16.700Z,90815.16
2023-02-26T00:37:58.481Z,90805.59
2023-02-26T00:40:37.440Z,90803.63
2023-02-26T00:43:15.219Z,90804.19
2023-02-26T00:46:00.410Z,90782.88
2023-02-26T00:48:48.428Z,90804.19
2023-02-26T00:51:27.827Z,90789.06
2023-02-26T00:54:07.146Z,90787.47
2023-02-26T00:56:39.531Z,90783.66
2023-02-26T00:59:11.849Z,90784.44
2023-02-26T01:01:44.652Z,90772.81
2023-02-26T01:04:21.393Z,90767.16
2023-02-26T01:06:56.530Z,90796.16
2023-02-26T01:09:32.686Z,90784.66
2023-02-26T01:12:07.679Z,90778.22
2023-02-26T01:14:40.460Z,90783.22
2023-02-26T01:17:18.569Z,90779.13
2023-02-26T01:19:54.069Z,90779.13
2023-02-26T01:22:31.463Z,90792.88
2023-02-26T01:25:08.035Z,90786.38
2023-02-26T01:27:40.758Z,90770.72
2023-02-26T01:30:13.960Z,90776.28
2023-02-26T01:32:52.693Z,90781.63
2023-02-26T01:35:38.986Z,90763.47
2023-02-26T01:38:20.337Z,90769.66
2023-02-26T01:41:13.091Z,90766.59
2023-02-26T01:43:59.261Z,90763.69
2023-02-26T01:46:38.615Z,90770.72
2023-02-26T01:49:15.478Z,90766.94
2023-02-26T01:51:51.102Z,90770.72
2023-02-26T01:54:28.010Z,90768.13
2023-02-26T01:57:05.978Z,90749.34
2023-02-26T01:59:41.956Z,90749.00
2023-02-26T02:02:20.752Z,90733.72
2023-02-26T02:04:53.731Z,90746.75
2023-02-26T02:07:26.031Z,90740.22
2023-02-26T02:09:58.361Z,90740.44
2023-02-26T02:12:38.750Z,90745.22
2023-02-26T02:15:17.601Z,90738.16
2023-02-26T02:17:55.449Z,90745.75
2023-02-26T02:20:59.483Z,90748.91
2023-02-26T02:23:38.996Z,90742.06
2023-02-26T02:26:31.837Z,90735.13
2023-02-26T02:29:40.657Z,90734.47
2023-02-26T02:32:19.642Z,90745.09
2023-02-26T02:35:02.620Z,90753.56
2023-02-26T02:37:39.750Z,90764.88
2023-02-26T02:40:15.852Z,90747.47
2023-02-26T02:42:54.808Z,90747.69
2023-02-26T02:45:32.270Z,90764.22
2023-02-26T02:48:12.232Z,90749.09
2023-02-26T02:50:50.207Z,90757.50
2023-02-26T02:53:26.456Z,90759.88
2023-02-26T02:56:02.282Z,90749.88
2023-02-26T02:58:38.673Z,90752.59
2023-02-26T03:01:17.999Z,90755.09
2023-02-26T03:03:56.753Z,90751.50
2023-02-26T03:06:29.060Z,90760.63
2023-02-26T03:09:03.544Z,90758.78
2023-02-26T03:11:36.259Z,90753.25
2023-02-26T03:14:10.369Z,90756.28
2023-02-26T03:17:09.047Z,90750.66
2023-02-26T03:20:04.859Z,90746.63
2023-02-26T03:22:45.505Z,90749.66
2023-02-26T03:25:29.162Z,90758.13
2023-02-26T03:28:10.263Z,90764.53
2023-02-26T03:30:48.470Z,90760.19
2023-02-26T03:33:24.914Z,90771.06
2023-02-26T03:36:06.330Z,90760.31
2023-02-26T03:38:44.714Z,90763.88
2023-02-26T03:41:23.135Z,90764.41
2023-02-26T03:43:59.772Z,90773.22
2023-02-26T03:46:45.899Z,90762.13
2023-02-26T03:49:26.713Z,90771.91
2023-02-26T03:52:02.220Z,90762.31
2023-02-26T03:55:03.580Z,90762.56
2023-02-26T03:57:56.229Z,90759.63
2023-02-26T04:00:44.384Z,90759.97
2023-02-26T04:03:21.795Z,90755.97
2023-02-26T04:05:54.642Z,90750.97
2023-02-26T04:08:29.303Z,90741.84
2023-02-26T04:11:07.733Z,90766.91
2023-02-26T04:13:40.131Z,90740.13
2023-02-26T04:16:13.469Z,90736.19
2023-02-26T04:18:45.984Z,90747.94
2023-02-26T04:21:21.506Z,90729.91
2023-02-26T04:23:54.508Z,90729.44
2023-02-26T04:26:27.533Z,90716.66
2023-02-26T04:28:59.866Z,90730.53
2023-02-26T04:31:32.681Z,90722.19
2023-02-26T04:34:05.666Z,90718.94
2023-02-26T04:36:38.206Z,90711.31
2023-02-26T04:39:12.212Z,90710.78
2023-02-26T04:41:44.559Z,90722.63
2023-02-26T04:44:17.016Z,90712.41
2023-02-26T04:46:49.331Z,90695.38
2023-02-26T04:49:21.804Z,90713.81
2023-02-26T04:51:54.159Z,90703.06
2023-02-26T04:54:27.485Z,90714.28
2023-02-26T04:56:59.794Z,90702.09
2023-02-26T04:59:32.734Z,90717.63
2023-02-26T05:02:05.619Z,90725.91
2023-02-26T05:04:38.644Z,90707.97
2023-02-26T05:07:11.339Z,90713.41
2023-02-26T05:09:44.476Z,90724.38
2023-02-26T05:12:17.186Z,90717.50
2023-02-26T05:14:49.487Z,90709.25
2023-02-26T05:17:21.858Z,90701.75
2023-02-26T05:19:54.293Z,90696.25
2023-02-26T05:22:26.810Z,90700.91
2023-02-26T05:24:59.795Z,90703.06
2023-02-26T05:27:32.591Z,90682.66
2023-02-26T05:30:06.529Z,90696.03
2023-02-26T05:32:41.372Z,90692.09
2023-02-26T05:35:13.800Z,90664.94
2023-02-26T05:37:46.063Z,90684.81
2023-02-26T05:40:19.189Z,90689.19
2023-02-26T05:42:51.583Z,90685.47
2023-02-26T05:45:23.860Z,90670.72
2023-02-26T05:47:56.228Z,90676.88
2023-02-26T05:50:31.857Z,90662.53
2023-02-26T05:53:04.105Z,90665.47
2023-02-26T05:55:37.096Z,90668.16
2023-02-26T05:58:09.688Z,90652.06
2023-02-26T06:00:42.155Z,90661.72
2023-02-26T06:03:14.900Z,90654.00
2023-02-26T06:05:47.762Z,90646.69
2023-02-26T06:08:20.111Z,90655.47
2023-02-26T06:10:53.109Z,90663.81
2023-02-26T06:13:25.443Z,90660.44
2023-02-26T06:15:57.819Z,90668.47
2023-02-26T06:18:31.566Z,90657.69
2023-02-26T06:21:04.443Z,90640.59
2023-02-26T06:23:36.737Z,90663.28
2023-02-26T06:26:10.152Z,90671.88
2023-02-26T06:28:42.514Z,90646.03
2023-02-26T06:31:15.009Z,90660.13
2023-02-26T06:33:47.502Z,90654.31
2023-02-26T06:36:19.808Z,90652.28
2023-02-26T06:38:52.117Z,90636.38
2023-02-26T06:41:25.249Z,90649.69
2023-02-26T06:49:53.828Z,90647.41
2023-02-26T06:52:26.254Z,90642.19
2023-02-26T06:54:58.826Z,90649.34
2023-02-26T06:57:31.208Z,90637.13
2023-02-26T07:00:05.099Z,90640.47
2023-02-26T07:02:37.573Z,90630.13
2023-02-26T07:05:10.761Z,90634.03
2023-02-26T07:07:43.315Z,90633.91
2023-02-26T07:10:15.599Z,90632.16
2023-02-26T07:12:48.206Z,90638.22
2023-02-26T07:15:20.563Z,90631.75
2023-02-26T07:17:53.009Z,90626.72
2023-02-26T07:20:26.465Z,90612.03
2023-02-26T07:22:58.768Z,90613.13
2023-02-26T07:25:31.113Z,90606.06
2023-02-26T07:28:03.599Z,90612.28
2023-02-26T07:30:35.999Z,90613.53
2023-02-26T07:33:08.512Z,90608.75
2023-02-26T07:35:41.635Z,90620.78
2023-02-26T07:38:13.942Z,90616.31
2023-02-26T07:40:46.426Z,90606.53
2023-02-26T07:43:18.732Z,90619.47
2023-02-26T07:45:51.280Z,90617.28
2023-02-26T07:48:23.624Z,90613.91
2023-02-26T07:50:56.949Z,90617.91
2023-02-26T07:53:29.303Z,90615.94
2023-02-26T07:56:02.226Z,90638.25
2023-02-26T07:58:34.625Z,90652.56
2023-02-26T08:01:07.050Z,90626.88
2023-02-26T08:03:39.674Z,90642.56
2023-02-26T08:06:13.540Z,90666.53
2023-02-26T08:08:45.874Z,90661.38
2023-02-26T08:11:18.468Z,90653.16
2023-02-26T08:13:50.818Z,90663.78
2023-02-26T08:16:23.323Z,90668.91
2023-02-26T08:18:55.846Z,90664.81
2023-02-26T08:21:28.926Z,90661.28
2023-02-26T08:24:01.407Z,90680.50
2023-02-26T08:26:35.909Z,90661.59
2023-02-26T08:29:08.480Z,90674.94
2023-02-26T08:31:41.160Z,90677.56
2023-02-26T08:34:13.580Z,90659.03
2023-02-26T08:36:46.647Z,90676.75
2023-02-26T08:39:19.011Z,90700.78
2023-02-26T08:41:51.299Z,90709.75
2023-02-26T08:44:23.600Z,90699.94
2023-02-26T08:46:56.218Z,90705.88
2023-02-26T08:49:28.656Z,90697.25
2023-02-26T08:52:01.590Z,90689.53
2023-02-26T08:54:33.955Z,90712.84
2023-02-26T08:57:06.466Z,90697.88
2023-02-26T08:59:38.803Z,90706.03
2023-02-26T09:02:11.723Z,90691.53
2023-02-26T09:04:44.087Z,90708.63
2023-02-26T09:07:17.100Z,90679.94
2023-02-26T09:09:49.400Z,90718.72
2023-02-26T09:12:21.818Z,90731.66
2023-02-26T09:14:54.105Z,90711.34
2023-02-26T09:17:26.444Z,90705.06
2023-02-26T09:19:59.003Z,90729.25
2023-02-26T09:22:32.004Z,90705.50
2023-02-26T09:25:05.729Z,90720.38
2023-02-26T09:34:37.412Z,90710.19
2023-02-26T09:37:11.961Z,90733.78
2023-02-26T09:39:44.779Z,90726.22
2023-02-26T09:42:29.420Z,90739.03
2023-02-26T09:45:02.988Z,90744.34
2023-02-26T09:47:41.128Z,90743.81
2023-02-26T09:50:20.550Z,90766.69
2023-02-26T09:52:59.982Z,90745.94
2023-02-26T09:55:38.418Z,90741.25
2023-02-26T09:58:18.947Z,90742.69
2023-02-26T10:01:01.412Z,90734.84
2023-02-26T10:03:45.590Z,90748.66
2023-02-26T10:06:25.968Z,90746.66
2023-02-26T10:09:25.248Z,90728.09
2023-02-26T10:12:02.901Z,90723.06
2023-02-26T10:14:42.678Z,90725.34
2023-02-26T10:17:18.545Z,90723.16
2023-02-26T10:19:55.825Z,90717.38
2023-02-26T10:22:33.589Z,90732.97
2023-02-26T10:25:10.864Z,90731.22
2023-02-26T10:27:53.007Z,90729.88
2023-02-26T10:30:34.953Z,90725.50
2023-02-26T10:33:18.015Z,90721.41
2023-02-26T10:35:53.123Z,90706.38
2023-02-26T10:38:30.285Z,90700.38
2023-02-26T10:41:07.431Z,90683.91
2023-02-26T10:43:41.620Z,90699.97
2023-02-26T10:46:26.814Z,90686.00
2023-02-26T10:49:24.411Z,90703.94
2023-02-26T10:52:01.453Z,90699.59
2023-02-26T10:54:38.860Z,90689.78
2023-02-26T10:57:18.956Z,90694.41
2023-02-26T10:59:51.610Z,90685.44
2023-02-26T11:02:34.623Z,90684.03
2023-02-26T11:05:16.325Z,90691.25
2023-02-26T11:07:51.709Z,90719.72
2023-02-26T11:10:31.168Z,90700.38
2023-02-26T11:13:04.031Z,90686.16
2023-02-26T11:15:36.662Z,90705.81
2023-02-26T11:18:13.682Z,90687.25
2023-02-26T11:20:47.491Z,90689.59
2023-02-26T11:23:22.687Z,90706.09
2023-02-26T11:26:01.816Z,90707.38
2023-02-26T11:28:37.155Z,90701.66
2023-02-26T11:31:11.379Z,90703.94
2023-02-26T11:33:45.574Z,90712.22
2023-02-26T11:36:20.395Z,90698.00
2023-02-26T11:38:56.594Z,90700.50
2023-02-26T11:41:29.881Z,90704.00
2023-02-26T11:44:06.634Z,90707.63
2023-02-26T11:46:44.930Z,90683.22
2023-02-26T11:49:20.692Z,90673.94
2023-02-26T11:52:05.610Z,90693.66
2023-02-26T11:54:39.317Z,90696.41
2023-02-26T11:57:17.244Z,90711.25
2023-02-26T11:59:51.476Z,90711.16
2023-02-26T12:02:28.712Z,90709.63
2023-02-26T12:05:05.320Z,90700.34
2023-02-26T12:07:38.318Z,90724.19
2023-02-26T12:10:15.447Z,90704.84
2023-02-26T12:13:01.377Z,90739.66
2023-02-26T12:15:41.793Z,90733.94
2023-02-26T12:18:30.016Z,90732.06
2023-02-26T12:21:16.839Z,90718.31
2023-02-26T12:24:15.042Z,90735.41
2023-02-26T12:26:59.140Z,90743.06
2023-02-26T12:29:54.105Z,90719.09
2023-02-26T12:32:43.317Z,90720.84
2023-02-26T12:35:37.081Z,90738.00
2023-02-26T12:57:49.672Z,90754.44
2023-02-26T13:00:40.182Z,90778.25
2023-02-26T13:04:02.965Z,90771.66
2023-02-26T13:07:10.967Z,90782.91
2023-02-26T13:09:55.060Z,90800.84
2023-02-26T13:12:37.571Z,90798.03
2023-02-26T13:15:38.818Z,90819.69
2023-02-26T13:18:19.491Z,90803.56
2023-02-26T13:20:59.684Z,90816.41
2023-02-26T13:23:37.430Z,90813.19
2023-02-26T13:26:13.671Z,90819.56
2023-02-26T13:28:53.980Z,90808.97
2023-02-26T13:31:31.246Z,90787.75
2023-02-26T13:34:10.712Z,90791.22
2023-02-26T13:36:44.205Z,90801.28
2023-02-26T13:39:38.795Z,90782.19
2023-02-26T13:42:25.457Z,90790.63
2023-02-26T13:45:20.650Z,90771.69
2023-02-26T13:48:07.377Z,90776.94
2023-02-26T13:50:51.060Z,90786.59
2023-02-26T13:53:54.687Z,90774.38
2023-02-26T13:56:47.538Z,90760.00
2023-02-26T13:59:31.284Z,90760.19
2023-02-26T14:02:37.416Z,90766.31
2023-02-26T14:05:44.636Z,90758.53
2023-02-26T14:08:26.692Z,90759.28
2023-02-26T14:11:02.797Z,90780.16
2023-02-26T14:13:36.765Z,90754.19
2023-02-26T14:16:12.410Z,90755.28
2023-02-26T14:18:51.222Z,90760.13
2023-02-26T14:21:48.341Z,90757.63
2023-02-26T14:24:25.444Z,90761.41
2023-02-26T14:27:30.678Z,90787.13
2023-02-26T14:30:42.512Z,90783.00
2023-02-26T14:33:17.598Z,90789.00
2023-02-26T14:35:51.939Z,90777.47
2023-02-26T14:38:30.081Z,90805.28
2023-02-26T14:41:07.238Z,90810.69
2023-02-26T14:43:43.100Z,90798.03
2023-02-26T14:46:15.722Z,90808.34
2023-02-26T14:48:48.290Z,90806.63
2023-02-26T14:51:31.439Z,90810.38
2023-02-26T14:54:29.066Z,90813.53
2023-02-26T14:57:04.002Z,90837.25
2023-02-26T14:59:51.696Z,90817.13
2023-02-26T15:02:30.931Z,90840.41
2023-02-26T15:05:29.457Z,90841.78
2023-02-26T15:08:20.233Z,90840.44
2023-02-26T15:11:12.801Z,90848.28
2023-02-26T15:14:17.856Z,90863.41
2023-02-26T15:17:01.381Z,90864.06
2023-02-26T15:19:56.084Z,90845.13
2023-02-26T15:22:46.712Z,90855.91
2023-02-26T15:25:27.523Z,90876.25
2023-02-26T15:28:01.516Z,90880.84
2023-02-26T15:30:35.020Z,90865.28
2023-02-26T15:33:13.219Z,90856.50
2023-02-26T15:35:47.584Z,90854.22
2023-02-26T15:38:20.494Z,90852.81
2023-02-26T15:40:57.556Z,90861.28
2023-02-26T15:43:30.897Z,90858.56
2023-02-26T15:46:04.267Z,90860.53
2023-02-26T15:48:41.455Z,90860.84
2023-02-26T15:51:17.231Z,90881.72
2023-02-26T15:53:53.939Z,90890.75
2023-02-26T15:56:30.855Z,90890.84
2023-02-26T15:59:07.428Z,90879.22
2023-02-26T16:01:41.249Z,90884.75
2023-02-26T16:04:16.107Z,90888.78
2023-02-26T16:06:52.774Z,90896.38
2023-02-26T16:09:28.973Z,90900.41
2023-02-26T16:12:06.964Z,90903.44
2023-02-26T16:14:44.648Z,90906.13
2023-02-26T16:17:25.039Z,90905.19
2023-02-26T16:19:59.866Z,90911.25
2023-02-26T16:22:36.868Z,90893.63
2023-02-26T16:25:18.663Z,90906.13
2023-02-26T16:28:00.086Z,90918.44
2023-02-26T16:30:36.347Z,90919.34
2023-02-26T16:33:12.964Z,90937.94
2023-02-26T16:35:48.586Z,90938.84
2023-02-26T16:38:23.788Z,90961.59
2023-02-26T16:40:58.802Z,90951.72
2023-02-26T16:43:51.918Z,90967.00
2023-02-26T16:46:34.041Z,90973.38
2023-02-26T16:49:11.613Z,90966.53
2023-02-26T16:51:45.777Z,90969.81
2023-02-26T16:54:22.067Z,90974.63
2023-02-26T16:56:58.187Z,90965.81
2023-02-26T16:59:32.145Z,90988.22
2023-02-26T17:02:12.977Z,90978.53
2023-02-26T17:04:50.189Z,90981.13
2023-02-26T17:07:26.385Z,90978.13
2023-02-26T17:10:05.073Z,90989.09
2023-02-26T17:12:46.057Z,90996.41
2023-02-26T17:15:26.282Z,90992.59
2023-02-26T17:17:59.428Z,91006.59
2023-02-26T17:20:32.744Z,90992.81
2023-02-26T17:23:08.137Z,90998.94
2023-02-26T17:25:43.364Z,91002.47
2023-02-26T17:28:21.307Z,91000.53
2023-02-26T17:30:54.779Z,91003.81
2023-02-26T17:33:27.970Z,91000.22
2023-02-26T17:36:02.041Z,90990.00
2023-02-26T17:38:34.589Z,90989.13
2023-02-26T17:41:06.960Z,90981.00
2023-02-26T17:43:39.344Z,90991.22
2023-02-26T17:46:11.967Z,90999.88
2023-02-26T17:48:45.039Z,91005.66
2023-02-26T17:51:17.436Z,91004.91
2023-02-26T17:53:49.925Z,91001.34
2023-02-26T17:56:27.044Z,91004.81
2023-02-26T17:59:00.415Z,91003.19
2023-02-26T18:01:33.145Z,91017.78
2023-02-26T18:04:06.216Z,91014.47
2023-02-26T18:06:38.669Z,91014.72
2023-02-26T18:09:12.519Z,91016.25
2023-02-26T18:11:44.924Z,90985.06
2023-02-26T18:14:17.294Z,91003.19
2023-02-26T18:16:49.777Z,91003.66
2023-02-26T18:19:22.848Z,91009.88
2023-02-26T18:21:55.376Z,91021.59
2023-02-26T18:24:27.801Z,91018.22
2023-02-26T18:27:00.169Z,91016.38
2023-02-26T18:29:32.908Z,91019.53
2023-02-26T18:32:05.589Z,91014.69
2023-02-26T18:34:38.747Z,91023.03
2023-02-26T18:37:13.476Z,91029.25
2023-02-26T18:39:46.365Z,91026.50
2023-02-26T18:42:20.723Z,91015.38
2023-02-26T18:44:53.651Z,91028.22
2023-02-26T18:47:26.110Z,91031.16
2023-02-26T18:49:59.134Z,91036.38
2023-02-26T18:52:31.542Z,91040.06
2023-02-26T18:55:05.431Z,91037.09
2023-02-26T18:57:39.690Z,91050.25
2023-02-26T19:00:14.202Z,91048.94
2023-02-26T19:02:46.615Z,91054.78
2023-02-26T19:05:22.631Z,91055.13
2023-02-26T19:07:55.326Z,91063.25
2023-02-26T19:10:29.426Z,91055.44
2023-02-26T19:13:03.565Z,91055.59
2023-02-26T19:15:35.950Z,91052.75
2023-02-26T19:18:08.362Z,91047.41
2023-02-26T19:20:41.580Z,91059.66
2023-02-26T19:23:13.923Z,91061.06
2023-02-26T19:25:46.298Z,91062.03
2023-02-26T19:28:18.746Z,91057.63
2023-02-26T19:30:53.823Z,91058.41
2023-02-26T19:33:26.431Z,91066.34
2023-02-26T19:36:00.455Z,91073.91
2023-02-26T19:38:32.874Z,91059.53
2023-02-26T19:41:05.302Z,91070.53
2023-02-26T19:43:37.655Z,91072.66
2023-02-26T19:46:10.101Z,91076.34
2023-02-26T19:48:42.960Z,91070.84
2023-02-26T19:51:16.234Z,91084.50
2023-02-26T19:53:48.531Z,91079.28
2023-02-26T19:56:20.939Z,91089.09
2023-02-26T19:58:53.224Z,91090.31
2023-02-26T20:01:25.679Z,91086.59
2023-02-26T20:03:58.087Z,91094.75
2023-02-26T20:06:31.569Z,91100.22
2023-02-26T20:09:05.471Z,91091.28
2023-02-26T20:11:38.799Z,91095.72
2023-02-26T20:14:11.657Z,91097.44
2023-02-26T20:16:44.108Z,91106.03
2023-02-26T20:19:16.836Z,91110.50
2023-02-26T20:21:50.277Z,91112.81
2023-02-26T20:24:22.638Z,91116.75
2023-02-26T20:26:55.112Z,91117.50
2023-02-26T20:29:27.603Z,91118.09
2023-02-26T20:32:00.324Z,91109.47
2023-02-26T20:34:32.894Z,91120.94
2023-02-26T20:37:05.912Z,91115.59
2023-02-26T20:39:38.319Z,91127.41
2023-02-26T20:42:10.964Z,91136.88
2023-02-26T20:44:43.308Z,91131.91
2023-02-26T20:47:15.666Z,91146.63
2023-02-26T20:49:48.188Z,91131.00
2023-02-26T20:52:21.255Z,91153.81
2023-02-26T20:54:53.543Z,91150.13
2023-02-26T20:57:26.006Z,91150.28
2023-02-26T20:59:58.465Z,91151.28
2023-02-26T21:02:31.744Z,91142.13
2023-02-26T21:05:05.209Z,91145.63
2023-02-26T21:07:38.910Z,91136.91
2023-02-26T21:10:14.419Z,91138.94
2023-02-26T21:12:46.870Z,91153.28
2023-02-26T21:15:19.609Z,91149.84
2023-02-26T21:17:52.403Z,91146.59
2023-02-26T21:20:24.822Z,91152.81
2023-02-26T21:22:58.137Z,91166.25
2023-02-26T21:25:30.660Z,91170.59
2023-02-26T21:28:03.015Z,91162.91
2023-02-26T21:30:35.602Z,91179.22
2023-02-26T21:33:08.112Z,91164.72
2023-02-26T21:35:40.508Z,91173.22
2023-02-26T21:38:13.553Z,91161.72
2023-02-26T21:40:46.055Z,91159.22
2023-02-26T21:43:18.476Z,91184.25
2023-02-26T21:45:50.963Z,91175.81
2023-02-26T21:48:23.376Z,91160.22
2023-02-26T21:50:55.950Z,91166.84
2023-02-26T21:53:29.115Z,91163.09
2023-02-26T21:56:02.002Z,91159.50
2023-02-26T21:58:34.406Z,91151.34
2023-02-26T22:01:06.809Z,91163.16
2023-02-26T22:03:39.800Z,91151.41
2023-02-26T22:06:12.535Z,91156.84
2023-02-26T22:08:45.656Z,91154.19
2023-02-26T22:11:18.250Z,91155.75
2023-02-26T22:13:50.982Z,91161.97
2023-02-26T22:16:24.119Z,91177.34
2023-02-26T22:18:56.581Z,91176.78
2023-02-26T22:21:29.158Z,91164.09
2023-02-26T22:24:03.097Z,91163.50
2023-02-26T22:26:35.520Z,91174.03
2023-02-26T22:29:07.891Z,91167.88
2023-02-26T22:31:40.747Z,91180.44
2023-02-26T22:34:13.574Z,91178.94
2023-02-26T22:36:46.181Z,91191.41
2023-02-26T22:39:19.590Z,91196.63
2023-02-26T22:41:52.111Z,91180.59
2023-02-26T22:44:24.646Z,91181.47
2023-02-26T22:46:57.004Z,91178.50
2023-02-26T22:49:29.432Z,91168.53
2023-02-26T22:52:02.094Z,91179.38
2023-02-26T22:54:36.332Z,91191.91
2023-02-26T22:57:08.745Z,91197.59
2023-02-26T22:59:41.145Z,91199.16
2023-02-26T23:02:13.531Z,91200.50
2023-02-26T23:04:45.999Z,91204.97
2023-02-26T23:07:18.678Z,91192.97
2023-02-26T23:09:51.673Z,91190.81
2023-02-26T23:12:24.115Z,91184.38
2023-02-26T23:14:56.527Z,91185.56
2023-02-26T23:17:28.992Z,91195.84
2023-02-26T23:20:02.455Z,91184.75
2023-02-26T23:22:34.769Z,91191.66
2023-02-26T23:25:08.653Z,91196.56
2023-02-26T23:27:41.049Z,91196.25
2023-02-26T23:30:14.192Z,91174.06
2023-02-26T23:32:46.510Z,91172.28
2023-02-26T23:35:18.904Z,91187.72
2023-02-26T23:37:51.318Z,91170.59
2023-02-26T23:40:24.480Z,91182.72
2023-02-26T23:42:56.873Z,91186.56
2023-02-26T23:45:29.213Z,91179.81
2023-02-26T23:48:01.918Z,91174.91
2023-02-26T23:50:34.242Z,91153.50
2023-02-26T23:53:06.633Z,91175.34
2023-02-26T23:55:39.621Z,91170.13
2023-02-26T23:58:11.937Z,91162.03
